Time;durP1;ratioP1;P1;durP2;ratioP2;P2;SDS_P1;SDS_P2;PMS_P1;PMS_P2;Temp;Humidity;BMP_temperature;BMP_pressure;BME280_temperature;BME280_humidity;BME280_pressure;Samples;Min_cycle;Max_cycle;Signal;HPM_P1;HPM_P2
2023/05/09 00:00:19;;;;;;;13.88;10.60;;;18.70;99.90;;;;;;5036320;28;20028;-82
2023/05/09 00:02:44;;;;;;;14.35;10.55;;;18.60;99.90;;;;;;5044095;28;20122;-83
2023/05/09 00:05:13;;;;;;;12.57;10.73;;;18.50;99.90;;;;;;5048791;28;20127;-78
2023/05/09 00:07:39;;;;;;;15.68;11.32;;;18.50;99.90;;;;;;5059276;28;20240;-80
2023/05/09 00:10:05;;;;;;;18.52;10.88;;;18.50;99.90;;;;;;5058286;28;20051;-80
2023/05/09 00:12:31;;;;;;;15.35;11.02;;;18.50;99.90;;;;;;5036595;28;20028;-80
2023/05/09 00:14:57;;;;;;;17.50;11.80;;;18.50;99.90;;;;;;5040961;28;20191;-86
2023/05/09 00:17:27;;;;;;;14.48;11.30;;;18.50;99.90;;;;;;5039485;28;20021;-83
2023/05/09 00:19:53;;;;;;;21.40;12.15;;;18.40;99.90;;;;;;5028983;28;20124;-85
2023/05/09 00:22:22;;;;;;;13.77;11.38;;;18.40;99.90;;;;;;5041391;28;20594;-83
2023/05/09 00:24:48;;;;;;;16.08;11.82;;;18.50;99.90;;;;;;5036670;28;20500;-76
2023/05/09 00:27:15;;;;;;;17.15;11.68;;;18.40;99.90;;;;;;5029736;28;20100;-76
2023/05/09 00:29:40;;;;;;;18.45;12.80;;;18.40;99.90;;;;;;5034865;28;20029;-76
2023/05/09 00:32:09;;;;;;;20.50;12.00;;;18.50;99.90;;;;;;5019140;28;20025;-76
2023/05/09 00:34:35;;;;;;;15.07;12.27;;;18.50;99.90;;;;;;5035102;28;20033;-76
2023/05/09 00:37:02;;;;;;;17.58;12.35;;;18.50;99.90;;;;;;5032326;28;20646;-77
2023/05/09 00:39:28;;;;;;;18.55;12.48;;;18.50;99.90;;;;;;5032413;28;20041;-76
2023/05/09 00:41:57;;;;;;;20.83;13.13;;;18.50;99.90;;;;;;5022386;28;20104;-76
2023/05/09 00:44:22;;;;;;;20.85;13.30;;;18.40;99.90;;;;;;5016761;28;20026;-77
2023/05/09 00:46:48;;;;;;;15.55;12.25;;;18.30;99.90;;;;;;5023918;28;20018;-76
2023/05/09 00:49:14;;;;;;;20.10;13.95;;;18.40;99.90;;;;;;5020877;28;20029;-77
2023/05/09 00:51:40;;;;;;;21.80;13.27;;;18.30;99.90;;;;;;5037463;28;20045;-86
2023/05/09 00:54:10;;;;;;;20.02;12.70;;;18.30;99.90;;;;;;5028850;28;20025;-84
2023/05/09 00:56:36;;;;;;;16.80;12.85;;;18.30;99.90;;;;;;5039463;28;20029;-83
2023/05/09 00:59:02;;;;;;;17.83;12.85;;;18.40;99.90;;;;;;5039479;28;20554;-85
2023/05/09 01:01:31;;;;;;;17.70;12.95;;;18.40;99.90;;;;;;5025596;28;20021;-84
2023/05/09 01:03:57;;;;;;;16.88;13.40;;;18.40;99.90;;;;;;5039274;28;20036;-86
2023/05/09 01:06:38;;;;;;;17.00;13.50;;;18.30;99.90;;;;;;5026517;28;20163;-85
2023/05/09 01:09:14;;;;;;;17.35;13.32;;;18.20;99.90;;;;;;5020218;28;20022;-84
2023/05/09 01:11:43;;;;;;;18.50;13.88;;;18.20;99.90;;;;;;5026898;28;20116;-82
2023/05/09 01:14:22;;;;;;;22.95;14.48;;;18.20;99.90;;;;;;5036400;28;20021;-76
2023/05/09 01:16:51;;;;;;;21.80;15.43;;;18.10;99.90;;;;;;5031350;28;20029;-76
2023/05/09 01:19:33;;;;;;;18.85;14.52;;;18.10;99.90;;;;;;5018304;28;20084;-76
2023/05/09 01:22:03;;;;;;;21.05;14.30;;;18.10;99.90;;;;;;5032334;28;20419;-76
2023/05/09 01:24:59;;;;;;;19.25;13.98;;;18.10;99.90;;;;;;5032082;28;20116;-75
2023/05/09 01:28:05;;;;;;;24.83;14.75;;;18.10;99.90;;;;;;5021142;28;20013;-82
2023/05/09 01:30:33;;;;;;;19.90;13.98;;;18.10;99.90;;;;;;5039914;28;20083;-77
2023/05/09 01:33:04;;;;;;;22.55;14.85;;;18.00;99.90;;;;;;5022193;28;20025;-76
2023/05/09 01:35:34;;;;;;;21.13;14.80;;;18.10;99.90;;;;;;5031506;28;20013;-76
2023/05/09 01:38:03;;;;;;;20.45;13.80;;;18.00;99.90;;;;;;5021233;28;20025;-76
2023/05/09 01:40:32;;;;;;;19.98;14.20;;;18.00;99.90;;;;;;5035209;28;20048;-83
2023/05/09 01:43:02;;;;;;;23.45;14.88;;;18.00;99.90;;;;;;5035746;28;20040;-85
2023/05/09 01:45:28;;;;;;;19.45;14.88;;;18.00;99.90;;;;;;5023511;28;20087;-84
2023/05/09 01:47:58;;;;;;;20.33;14.57;;;18.00;99.90;;;;;;5021835;28;20091;-86
2023/05/09 01:50:24;;;;;;;21.15;15.35;;;18.00;99.90;;;;;;5037222;28;20086;-83
2023/05/09 01:52:57;;;;;;;19.88;15.30;;;18.00;99.90;;;;;;5032596;28;20064;-76
2023/05/09 01:55:30;;;;;;;18.50;14.27;;;18.00;99.90;;;;;;5030644;28;20068;-76
2023/05/09 01:57:58;;;;;;;23.88;16.35;;;18.00;99.90;;;;;;5028535;28;20041;-75
2023/05/09 02:03:01;;;;;;;25.63;15.38;;;18.00;99.90;;;;;;4992123;26;20393;-76
2023/05/09 02:05:28;;;;;;;21.52;15.18;;;18.00;99.90;;;;;;5011259;28;20433;-76
2023/05/09 02:07:58;;;;;;;19.42;15.25;;;18.00;99.90;;;;;;5011728;28;20037;-78
2023/05/09 02:10:26;;;;;;;21.67;15.23;;;18.00;99.90;;;;;;5030392;28;20432;-78
2023/05/09 02:12:53;;;;;;;23.45;16.10;;;18.00;99.90;;;;;;5014125;28;20033;-83
2023/05/09 02:15:20;;;;;;;24.67;16.85;;;18.10;99.90;;;;;;5006969;28;20029;-82
2023/05/09 02:17:46;;;;;;;22.60;15.82;;;18.00;99.90;;;;;;5014240;28;20072;-76
2023/05/09 02:20:12;;;;;;;23.05;16.63;;;18.00;99.90;;;;;;5009573;28;20060;-76
2023/05/09 02:22:40;;;;;;;24.95;16.25;;;18.00;99.90;;;;;;5010839;28;20026;-76
2023/05/09 02:25:07;;;;;;;22.45;16.52;;;18.00;99.90;;;;;;5010295;28;20109;-75
2023/05/09 02:27:37;;;;;;;27.17;17.70;;;18.00;99.90;;;;;;5010119;28;20057;-76
2023/05/09 02:30:10;;;;;;;27.33;17.83;;;18.00;99.90;;;;;;5008612;28;20025;-76
2023/05/09 02:32:37;;;;;;;27.60;18.27;;;17.90;99.90;;;;;;5020141;28;20060;-80
2023/05/09 02:35:08;;;;;;;35.55;22.63;;;17.80;99.90;;;;;;5016623;28;20045;-76
2023/05/09 02:37:35;;;;;;;35.40;22.77;;;17.90;99.90;;;;;;5007478;28;20448;-76
2023/05/09 02:40:01;;;;;;;43.15;25.10;;;17.80;99.90;;;;;;4997900;28;20038;-75
2023/05/09 02:42:29;;;;;;;42.13;24.30;;;17.90;99.90;;;;;;5009047;28;20026;-76
2023/05/09 02:44:59;;;;;;;45.40;25.13;;;17.80;99.90;;;;;;5010871;28;20104;-76
2023/05/09 02:47:25;;;;;;;52.15;27.05;;;17.70;99.90;;;;;;5007451;28;20451;-76
2023/05/09 02:49:50;;;;;;;57.95;29.38;;;17.70;99.90;;;;;;4998932;28;20038;-83
2023/05/09 02:52:18;;;;;;;67.40;33.90;;;17.60;99.90;;;;;;5012436;28;20400;-79
2023/05/09 02:54:47;;;;;;;65.75;31.83;;;17.60;99.90;;;;;;5015940;28;20029;-81
2023/05/09 02:57:12;;;;;;;71.97;32.10;;;17.60;99.90;;;;;;5003615;28;20475;-83
2023/05/09 02:59:38;;;;;;;59.97;32.08;;;17.60;99.90;;;;;;4999029;28;20131;-82
2023/05/09 03:02:04;;;;;;;74.18;34.45;;;17.70;99.90;;;;;;5014968;28;20033;-82
2023/05/09 03:04:29;;;;;;;71.90;34.38;;;17.70;99.90;;;;;;5014149;28;20672;-80
2023/05/09 03:06:55;;;;;;;77.15;35.15;;;17.70;99.90;;;;;;5149706;23;20056;-84
2023/05/09 03:09:23;;;;;;;73.00;35.80;;;17.80;99.90;;;;;;5063216;28;20109;-81
2023/05/09 03:11:49;;;;;;;77.93;36.65;;;17.80;99.90;;;;;;5037619;28;20069;-82
2023/05/09 03:14:15;;;;;;;74.28;34.83;;;17.80;99.90;;;;;;5062211;28;20864;-83
2023/05/09 03:16:40;;;;;;;78.18;36.22;;;17.80;99.90;;;;;;5063022;28;20040;-82
2023/05/09 03:19:06;;;;;;;78.80;34.55;;;17.80;99.90;;;;;;5142002;22;20038;-82
2023/05/09 03:21:31;;;;;;;83.93;39.70;;;17.80;99.90;;;;;;4991007;28;20091;-76
2023/05/09 03:23:57;;;;;;;82.82;37.63;;;17.70;99.90;;;;;;4989367;28;20029;-75
2023/05/09 03:26:25;;;;;;;86.72;37.58;;;17.70;99.90;;;;;;4986459;28;20372;-76
2023/05/09 03:28:53;;;;;;;88.53;38.83;;;17.60;99.90;;;;;;4992328;28;20446;-76
2023/05/09 03:31:23;;;;;;;83.35;38.00;;;17.70;99.90;;;;;;4971010;28;20030;-75
2023/05/09 03:33:49;;;;;;;83.50;38.13;;;17.60;99.90;;;;;;4989608;28;20026;-75
2023/05/09 03:36:16;;;;;;;82.55;38.25;;;17.60;99.90;;;;;;4989690;28;20037;-76
2023/05/09 03:38:41;;;;;;;83.18;37.65;;;17.60;99.90;;;;;;4992611;28;20030;-76
2023/05/09 03:41:07;;;;;;;95.28;39.20;;;17.60;99.90;;;;;;4994439;28;20099;-75
2023/05/09 03:43:33;;;;;;;83.70;37.88;;;17.60;99.90;;;;;;5137414;23;20923;-80
2023/05/09 03:45:58;;;;;;;86.55;38.35;;;17.60;99.90;;;;;;5032245;28;20033;-76
2023/05/09 03:48:24;;;;;;;82.95;37.85;;;17.60;99.90;;;;;;5019698;28;20076;-76
2023/05/09 03:50:52;;;;;;;83.25;39.28;;;17.50;99.90;;;;;;5028293;28;20089;-80
2023/05/09 03:53:19;;;;;;;85.95;37.60;;;17.40;99.90;;;;;;5041891;28;20097;-79
2023/05/09 03:55:45;;;;;;;76.43;36.00;;;17.50;99.90;;;;;;5041190;28;20037;-82
2023/05/09 03:58:13;;;;;;;82.22;36.75;;;17.50;99.90;;;;;;5038271;28;20093;-76
2023/05/09 04:00:46;;;;;;;75.03;36.55;;;17.60;99.90;;;;;;5022885;28;20486;-76
2023/05/09 04:03:12;;;;;;;76.40;35.38;;;17.60;99.90;;;;;;5027025;28;20468;-75
2023/05/09 04:05:38;;;;;;;80.55;35.83;;;17.60;99.90;;;;;;5013906;28;20480;-75
2023/05/09 04:08:04;;;;;;;87.40;38.30;;;17.60;99.90;;;;;;5011166;28;20515;-77
2023/05/09 04:10:34;;;;;;;80.07;36.90;;;17.50;99.90;;;;;;5031476;28;20113;-84
2023/05/09 04:13:00;;;;;;;83.53;38.50;;;17.50;99.90;;;;;;5034539;28;20288;-84
2023/05/09 04:15:26;;;;;;;83.97;37.40;;;17.60;99.90;;;;;;5013627;28;20449;-76
2023/05/09 04:17:54;;;;;;;87.65;38.00;;;17.60;99.90;;;;;;5026397;28;20040;-76
2023/05/09 04:20:19;;;;;;;80.30;37.33;;;17.60;99.90;;;;;;5028925;28;20263;-81
2023/05/09 04:22:46;;;;;;;81.45;38.35;;;17.60;99.90;;;;;;5028446;28;20025;-76
2023/05/09 04:25:13;;;;;;;92.72;40.53;;;17.70;99.90;;;;;;5015106;28;20496;-76
2023/05/09 04:27:38;;;;;;;80.88;38.22;;;17.70;99.90;;;;;;5029612;28;20843;-83
2023/05/09 04:30:05;;;;;;;82.57;38.22;;;17.70;99.90;;;;;;5032121;28;20024;-76
2023/05/09 04:32:31;;;;;;;87.07;39.80;;;17.70;99.90;;;;;;5034467;28;20052;-81
2023/05/09 04:34:58;;;;;;;84.20;38.75;;;17.70;99.90;;;;;;5031622;28;20037;-84
2023/05/09 04:37:24;;;;;;;81.40;38.53;;;17.70;99.90;;;;;;5034408;28;20017;-84
2023/05/09 04:39:52;;;;;;;86.32;38.38;;;17.80;99.90;;;;;;5035516;28;20044;-83
2023/05/09 04:42:18;;;;;;;83.70;39.03;;;17.80;99.90;;;;;;5016538;28;20050;-84
2023/05/09 04:44:44;;;;;;;86.57;38.20;;;17.70;99.90;;;;;;5140560;23;20053;-76
2023/05/09 04:47:09;;;;;;;91.95;40.13;;;17.70;99.90;;;;;;4966337;28;20363;-76
2023/05/09 04:49:35;;;;;;;92.20;41.03;;;17.80;99.90;;;;;;4988706;28;20093;-76
2023/05/09 04:52:00;;;;;;;91.57;40.88;;;17.80;99.90;;;;;;4983054;28;20030;-76
2023/05/09 04:54:26;;;;;;;98.15;40.97;;;17.70;99.90;;;;;;4989811;28;20025;-76
2023/05/09 04:56:54;;;;;;;89.93;40.15;;;17.70;99.90;;;;;;4993421;28;20377;-86
2023/05/09 04:59:19;;;;;;;92.80;40.50;;;17.70;99.90;;;;;;4992189;28;20449;-86
2023/05/09 05:01:47;;;;;;;86.78;38.80;;;17.70;99.90;;;;;;4975707;28;20526;-84
2023/05/09 05:04:13;;;;;;;92.00;41.42;;;17.70;99.90;;;;;;4997303;28;20467;-83
2023/05/09 05:06:38;;;;;;;92.82;41.00;;;17.80;99.90;;;;;;4996543;28;20084;-78
2023/05/09 05:09:06;;;;;;;96.93;44.03;;;17.70;99.90;;;;;;4998243;28;20236;-77
2023/05/09 05:11:32;;;;;;;89.25;40.40;;;17.80;99.90;;;;;;4997111;28;20086;-85
2023/05/09 05:16:33;;;;;;;92.97;40.22;;;17.90;99.90;;;;;;5046077;23;20064;-84
2023/05/09 05:19:01;;;;;;;97.10;40.90;;;17.90;99.90;;;;;;5052756;28;20399;-83
2023/05/09 05:21:29;;;;;;;91.85;40.05;;;17.90;99.90;;;;;;5049653;28;20096;-75
2023/05/09 05:23:55;;;;;;;94.10;41.47;;;17.90;99.90;;;;;;5046413;28;20032;-76
2023/05/09 05:26:21;;;;;;;82.07;38.63;;;18.00;99.90;;;;;;5027390;28;20017;-83
2023/05/09 05:28:46;;;;;;;89.30;39.22;;;18.00;99.90;;;;;;5052848;28;20111;-83
2023/05/09 05:31:12;;;;;;;91.07;39.75;;;17.90;99.90;;;;;;5047201;28;20025;-76
2023/05/09 05:33:40;;;;;;;94.20;40.65;;;18.00;99.90;;;;;;5045293;28;20025;-76
2023/05/09 05:36:06;;;;;;;95.50;41.20;;;18.00;99.90;;;;;;5045332;28;20064;-76
2023/05/09 05:38:31;;;;;;;89.30;38.88;;;18.00;99.90;;;;;;5047906;28;20075;-77
2023/05/09 05:40:57;;;;;;;90.90;39.45;;;18.00;99.90;;;;;;5048176;28;20110;-76
2023/05/09 05:43:22;;;;;;;86.00;38.60;;;18.00;99.90;;;;;;5042346;28;20013;-77
2023/05/09 05:45:50;;;;;;;87.70;37.42;;;17.90;99.90;;;;;;5048125;28;20157;-75
2023/05/09 05:48:16;;;;;;;88.28;37.67;;;17.90;99.90;;;;;;5066250;28;20025;-79
2023/05/09 05:50:41;;;;;;;92.05;39.22;;;17.80;99.90;;;;;;5061329;28;20292;-83
2023/05/09 05:53:07;;;;;;;98.22;40.78;;;17.80;99.90;;;;;;5052927;28;20024;-81
2023/05/09 05:55:32;;;;;;;81.30;37.85;;;17.90;99.90;;;;;;5051223;28;20028;-81
2023/05/09 05:57:58;;;;;;;93.00;39.97;;;17.90;99.90;;;;;;5045454;28;20041;-82
2023/05/09 06:00:24;;;;;;;87.13;38.05;;;17.90;99.90;;;;;;5050711;28;20547;-83
2023/05/09 06:02:49;;;;;;;85.95;38.13;;;17.90;99.90;;;;;;5048297;28;20025;-83
2023/05/09 06:05:15;;;;;;;83.78;37.40;;;18.00;99.90;;;;;;5034552;28;20079;-85
2023/05/09 06:07:42;;;;;;;85.10;36.95;;;18.00;99.90;;;;;;5051097;28;20079;-77
2023/05/09 06:10:08;;;;;;;85.63;38.58;;;17.90;99.90;;;;;;5025521;28;20715;-76
2023/05/09 06:12:34;;;;;;;85.00;36.88;;;18.00;99.90;;;;;;5051287;28;20041;-75
2023/05/09 06:15:00;;;;;;;89.13;37.58;;;18.00;99.90;;;;;;5024976;28;20029;-76
2023/05/09 06:17:25;;;;;;;84.57;37.03;;;18.00;99.90;;;;;;5049471;28;20029;-75
2023/05/09 06:19:51;;;;;;;83.05;35.58;;;17.90;99.90;;;;;;5048492;28;20211;-84
2023/05/09 06:22:17;;;;;;;82.82;37.10;;;17.90;99.90;;;;;;5051994;28;20487;-81
2023/05/09 06:24:42;;;;;;;82.97;36.92;;;18.00;99.90;;;;;;5045839;28;20033;-82
2023/05/09 06:27:11;;;;;;;77.90;34.67;;;18.10;99.90;;;;;;5026532;28;20075;-81
2023/05/09 06:29:37;;;;;;;81.65;36.88;;;18.20;99.90;;;;;;5033751;28;20021;-81
2023/05/09 06:32:02;;;;;;;86.05;35.90;;;18.30;99.90;;;;;;5042553;28;20029;-80
2023/05/09 06:34:28;;;;;;;79.63;37.75;;;18.40;99.90;;;;;;5025541;28;20029;-79
2023/05/09 06:36:54;;;;;;;80.38;35.85;;;18.50;99.90;;;;;;5045770;28;20050;-80
2023/05/09 06:39:19;;;;;;;82.00;36.40;;;18.50;99.90;;;;;;5047891;28;20291;-75
2023/05/09 06:41:45;;;;;;;86.10;38.13;;;18.60;99.90;;;;;;5036307;28;20037;-75
2023/05/09 06:44:10;;;;;;;78.97;36.92;;;18.60;99.90;;;;;;5047109;28;20538;-76
2023/05/09 06:46:36;;;;;;;77.57;34.00;;;18.60;99.90;;;;;;5056283;28;20114;-84
2023/05/09 06:49:02;;;;;;;75.70;34.55;;;18.60;99.90;;;;;;5052935;28;20485;-85
2023/05/09 06:51:28;;;;;;;69.93;33.60;;;18.70;99.90;;;;;;5054882;28;20017;-82
2023/05/09 06:53:53;;;;;;;74.18;34.03;;;18.80;99.90;;;;;;5050251;28;20472;-83
2023/05/09 06:56:22;;;;;;;75.28;34.33;;;18.80;99.90;;;;;;5047552;28;20024;-76
2023/05/09 06:58:50;;;;;;;70.95;32.33;;;18.80;99.90;;;;;;5032368;28;20692;-76
2023/05/09 07:01:16;;;;;;;72.85;32.70;;;18.70;99.90;;;;;;5045929;28;20112;-84
2023/05/09 07:03:42;;;;;;;71.03;32.60;;;18.80;99.90;;;;;;5038084;28;20056;-81
2023/05/09 07:06:08;;;;;;;74.45;33.83;;;18.80;99.90;;;;;;5046071;28;20472;-78
2023/05/09 07:08:34;;;;;;;72.75;35.20;;;18.80;99.90;;;;;;5050844;28;20116;-82
2023/05/09 07:11:02;;;;;;;74.80;34.63;;;18.80;99.90;;;;;;5051015;28;20347;-82
2023/05/09 07:13:27;;;;;;;69.47;34.40;;;18.80;99.90;;;;;;5051097;28;20103;-83
2023/05/09 07:15:53;;;;;;;73.20;34.28;;;18.80;99.90;;;;;;5056785;28;20113;-82
2023/05/09 07:18:19;;;;;;;72.05;32.85;;;18.70;99.90;;;;;;5052000;28;20037;-85
2023/05/09 07:20:47;;;;;;;71.10;34.25;;;18.60;99.90;;;;;;5049312;28;20472;-81
2023/05/09 07:23:12;;;;;;;74.00;33.78;;;18.70;99.90;;;;;;5049368;28;20118;-80
2023/05/09 07:25:38;;;;;;;63.95;31.92;;;18.80;99.90;;;;;;5033903;28;20251;-81
2023/05/09 07:28:04;;;;;;;70.22;32.15;;;18.70;99.90;;;;;;5045059;28;20013;-84
2023/05/09 07:30:29;;;;;;;65.20;32.20;;;19.00;99.90;;;;;;5049340;28;20222;-82
2023/05/09 07:32:58;;;;;;;62.50;30.52;;;19.00;99.90;;;;;;5044381;28;20187;-90
2023/05/09 07:35:23;;;;;;;61.13;30.42;;;18.90;99.90;;;;;;5030704;28;20029;-84
2023/05/09 07:37:49;;;;;;;59.83;30.77;;;19.00;99.90;;;;;;5029092;28;20530;-81
2023/05/09 07:40:15;;;;;;;62.83;30.35;;;18.90;99.90;;;;;;5045292;28;21391;-78
2023/05/09 07:42:43;;;;;;;59.15;29.95;;;18.80;99.90;;;;;;5029140;28;20025;-76
2023/05/09 07:45:10;;;;;;;54.95;29.08;;;18.90;99.90;;;;;;5042486;28;20116;-75
2023/05/09 07:47:39;;;;;;;62.40;28.83;;;19.00;99.90;;;;;;5039315;28;20073;-76
2023/05/09 07:50:06;;;;;;;55.53;28.90;;;19.20;99.90;;;;;;5034420;28;20292;-75
2023/05/09 07:52:33;;;;;;;55.33;29.10;;;19.30;99.90;;;;;;5045502;28;20115;-75
2023/05/09 07:55:01;;;;;;;58.20;29.50;;;19.50;99.90;;;;;;5050959;28;20082;-76
2023/05/09 07:57:27;;;;;;;61.08;29.83;;;19.50;99.90;;;;;;5029398;28;20025;-83
2023/05/09 07:59:53;;;;;;;60.70;29.92;;;19.60;99.90;;;;;;5029209;28;20740;-80
2023/05/09 08:02:18;;;;;;;60.35;30.95;;;19.80;99.90;;;;;;5051349;28;20510;-83
2023/05/09 08:04:47;;;;;;;65.07;30.95;;;20.00;99.90;;;;;;5049171;28;20025;-83
2023/05/09 08:07:13;;;;;;;58.45;30.65;;;20.10;99.90;;;;;;5048584;28;20033;-76
2023/05/09 08:09:38;;;;;;;63.15;31.67;;;20.30;99.90;;;;;;5028834;28;20195;-76
2023/05/09 08:12:07;;;;;;;62.80;32.60;;;20.50;99.90;;;;;;5049257;28;20051;-76
2023/05/09 08:14:35;;;;;;;69.40;34.45;;;20.60;99.90;;;;;;5044385;28;20033;-75
2023/05/09 08:17:03;;;;;;;66.82;32.40;;;20.80;99.90;;;;;;5047874;28;20028;-76
2023/05/09 08:19:29;;;;;;;69.82;36.13;;;21.30;99.90;;;;;;5047365;28;20515;-76
2023/05/09 08:21:54;;;;;;;67.45;35.60;;;21.50;99.90;;;;;;5049235;28;20029;-77
2023/05/09 08:24:20;;;;;;;72.70;36.40;;;21.50;99.90;;;;;;5045925;28;20130;-77
2023/05/09 08:26:46;;;;;;;78.82;39.70;;;21.20;99.90;;;;;;5046343;28;20021;-76
2023/05/09 08:29:11;;;;;;;69.05;37.47;;;21.40;99.90;;;;;;5049481;28;20031;-75
2023/05/09 08:31:37;;;;;;;72.28;37.38;;;21.50;99.90;;;;;;5049907;28;20020;-76
2023/05/09 08:34:03;;;;;;;67.30;36.45;;;21.40;99.90;;;;;;5050057;28;20144;-77
2023/05/09 08:36:29;;;;;;;62.83;33.78;;;21.30;99.90;;;;;;5036320;28;20111;-77
2023/05/09 08:38:55;;;;;;;58.90;32.22;;;21.30;99.90;;;;;;5046732;28;20521;-80
2023/05/09 08:41:28;;;;;;;63.83;32.67;;;21.30;99.90;;;;;;5051401;28;20116;-77
2023/05/09 08:43:54;;;;;;;60.50;33.13;;;21.30;99.90;;;;;;5032520;28;20025;-76
2023/05/09 08:46:35;;;;;;;60.88;33.55;;;21.40;99.90;;;;;;5053335;28;20480;-76
2023/05/09 08:49:06;;;;;;;54.45;32.83;;;21.70;99.90;;;;;;5053955;28;20013;-76
2023/05/09 08:51:32;;;;;;;56.55;34.28;;;21.90;99.90;;;;;;5034933;28;20197;-76
2023/05/09 08:54:00;;;;;;;59.28;32.33;;;21.90;99.90;;;;;;5056089;28;20157;-75
2023/05/09 08:56:26;;;;;;;56.40;30.85;;;22.30;99.90;;;;;;5049127;28;20075;-76
2023/05/09 08:58:53;;;;;;;55.25;31.23;;;22.40;99.90;;;;;;5053759;28;20386;-76
2023/05/09 09:01:19;;;;;;;60.47;31.95;;;22.60;99.90;;;;;;5046632;28;20040;-76
2023/05/09 09:03:48;;;;;;;312.67;156.98;;;22.50;99.90;;;;;;5049178;28;20077;-77
2023/05/09 09:06:17;;;;;;;55.40;32.40;;;22.70;99.90;;;;;;5031782;28;20663;-76
2023/05/09 09:08:44;;;;;;;31.42;20.85;;;22.60;99.90;;;;;;5024950;28;20456;-80
2023/05/09 09:11:12;;;;;;;32.60;19.70;;;22.00;99.90;;;;;;5033609;28;20511;-77
2023/05/09 09:13:40;;;;;;;31.70;20.35;;;21.80;99.90;;;;;;5046478;28;20033;-76
2023/05/09 09:16:10;;;;;;;27.08;18.83;;;22.20;99.90;;;;;;5031088;28;20029;-76
2023/05/09 09:18:35;;;;;;;25.85;17.65;;;22.40;99.90;;;;;;5046493;28;20041;-76
2023/05/09 09:21:06;;;;;;;25.17;17.25;;;23.00;99.90;;;;;;5037891;28;20028;-75
2023/05/09 09:23:32;;;;;;;24.15;17.23;;;23.60;99.90;;;;;;5046470;28;20030;-76
2023/05/09 09:25:59;;;;;;;23.45;16.10;;;23.80;99.90;;;;;;5049187;28;20426;-76
2023/05/09 09:28:25;;;;;;;22.48;16.48;;;23.90;99.90;;;;;;5040526;28;20051;-75
2023/05/09 09:30:54;;;;;;;27.05;16.17;;;23.70;99.90;;;;;;5041751;28;20036;-76
2023/05/09 09:33:24;;;;;;;24.90;16.10;;;23.90;99.90;;;;;;5032243;28;20024;-76
2023/05/09 09:35:51;;;;;;;23.55;16.25;;;24.10;99.90;;;;;;5029756;28;20034;-76
2023/05/09 09:38:21;;;;;;;24.92;12.98;;;24.00;99.90;;;;;;5047457;28;20083;-76
2023/05/09 09:40:56;;;;;;;21.38;13.38;;;24.00;99.90;;;;;;5047206;28;20074;-76
2023/05/09 09:43:31;;;;;;;18.17;13.30;;;23.90;99.90;;;;;;5048914;28;20056;-76
2023/05/09 09:46:01;;;;;;;21.95;14.57;;;23.90;99.90;;;;;;5049985;28;20028;-76
2023/05/09 09:48:33;;;;;;;15.35;11.90;;;24.00;99.90;;;;;;5048402;28;20120;-76
2023/05/09 09:51:12;;;;;;;16.88;11.70;;;24.00;99.90;;;;;;5048091;28;20123;-76
2023/05/09 09:53:39;;;;;;;15.20;10.98;;;23.90;99.90;;;;;;5049035;28;20024;-76
2023/05/09 09:56:05;;;;;;;12.95;9.35;;;24.10;99.90;;;;;;5046912;28;20476;-76
2023/05/09 09:58:30;;;;;;;14.82;10.32;;;24.10;99.90;;;;;;5031290;28;20044;-76
2023/05/09 10:01:06;;;;;;;13.85;10.15;;;23.90;99.90;;;;;;5049067;28;20036;-76
2023/05/09 10:03:39;;;;;;;11.88;9.77;;;23.70;99.90;;;;;;5035610;28;20029;-77
2023/05/09 10:06:12;;;;;;;12.95;9.25;;;23.70;99.90;;;;;;5045789;28;20105;-76
2023/05/09 10:08:45;;;;;;;15.93;9.55;;;23.60;99.90;;;;;;5048723;28;20086;-76
2023/05/09 10:11:11;;;;;;;14.98;8.55;;;23.60;99.90;;;;;;5047171;28;20037;-76
2023/05/09 10:13:37;;;;;;;23.20;9.05;;;23.40;99.90;;;;;;5048819;28;20477;-76
2023/05/09 10:16:04;;;;;;;12.15;8.38;;;23.40;99.90;;;;;;5043954;28;20388;-77
2023/05/09 10:18:30;;;;;;;16.30;8.75;;;23.60;99.90;;;;;;5048812;28;20033;-76
2023/05/09 10:21:02;;;;;;;14.15;10.10;;;23.60;99.90;;;;;;5049690;28;20016;-75
2023/05/09 10:23:39;;;;;;;12.25;8.70;;;23.60;99.90;;;;;;5048852;28;20033;-77
2023/05/09 10:26:31;;;;;;;16.15;10.48;;;23.50;99.90;;;;;;5026084;28;20021;-77
2023/05/09 10:28:58;;;;;;;14.85;9.93;;;23.50;99.90;;;;;;5051081;28;20068;-76
2023/05/09 10:31:31;;;;;;;15.50;10.75;;;23.50;99.90;;;;;;5048865;28;20020;-76
2023/05/09 10:34:04;;;;;;;13.38;9.60;;;23.40;99.90;;;;;;5050598;28;20279;-76
2023/05/09 10:36:30;;;;;;;17.23;9.50;;;23.50;99.90;;;;;;5037383;28;20033;-77
2023/05/09 10:38:55;;;;;;;14.15;9.60;;;23.20;99.90;;;;;;5046731;28;20505;-76
2023/05/09 10:41:22;;;;;;;16.40;9.52;;;23.30;99.90;;;;;;5030374;28;20351;-76
2023/05/09 10:43:48;;;;;;;15.65;9.23;;;23.30;99.90;;;;;;5051240;28;20545;-76
2023/05/09 10:46:15;;;;;;;15.98;9.20;;;23.50;99.90;;;;;;5015302;28;20025;-77
2023/05/09 10:48:41;;;;;;;19.27;9.68;;;23.20;99.90;;;;;;5004507;28;20037;-80
2023/05/09 10:51:09;;;;;;;14.13;9.73;;;23.30;99.90;;;;;;5008234;28;20271;-76
2023/05/09 10:53:48;;;;;;;13.65;9.35;;;23.20;99.90;;;;;;5030634;28;20041;-76
2023/05/09 10:56:34;;;;;;;12.75;8.57;;;23.20;99.90;;;;;;5034508;28;20107;-76
2023/05/09 10:59:08;;;;;;;15.45;9.50;;;23.10;99.90;;;;;;5027804;28;20032;-76
2023/05/09 11:01:36;;;;;;;13.25;9.23;;;22.90;99.90;;;;;;5029292;28;20426;-76
2023/05/09 11:04:09;;;;;;;14.68;9.68;;;22.80;99.90;;;;;;5032121;28;20133;-76
2023/05/09 11:06:49;;;;;;;11.50;8.63;;;22.70;99.90;;;;;;5021093;28;20376;-77
2023/05/09 11:09:23;;;;;;;14.10;9.23;;;22.50;99.90;;;;;;5027310;28;20057;-76
2023/05/09 11:11:56;;;;;;;21.02;8.32;;;22.40;99.90;;;;;;5026077;28;20357;-76
2023/05/09 11:14:45;;;;;;;12.35;8.57;;;22.00;99.90;;;;;;5014192;28;20038;-77
2023/05/09 11:17:11;;;;;;;22.00;9.02;;;21.90;99.90;;;;;;5029881;28;20538;-76
2023/05/09 11:19:48;;;;;;;17.83;11.70;;;21.80;99.90;;;;;;5013736;28;20036;-76
2023/05/09 11:22:23;;;;;;;18.98;12.13;;;21.70;99.90;;;;;;5024940;28;20116;-76
2023/05/09 11:25:05;;;;;;;18.42;11.68;;;21.50;99.90;;;;;;5009189;28;20610;-80
2023/05/09 11:27:40;;;;;;;17.83;12.43;;;21.20;99.90;;;;;;5033850;28;20133;-76
2023/05/09 11:30:09;;;;;;;16.25;9.88;;;21.10;99.90;;;;;;5032194;28;20083;-76
2023/05/09 11:32:52;;;;;;;14.73;10.10;;;20.90;99.90;;;;;;5036063;28;20021;-76
2023/05/09 11:35:22;;;;;;;11.73;8.85;;;20.90;99.90;;;;;;5011952;28;20033;-76
2023/05/09 11:38:05;;;;;;;12.70;7.72;;;20.90;99.90;;;;;;5026772;28;20276;-74
2023/05/09 11:40:32;;;;;;;9.57;7.15;;;21.00;99.90;;;;;;5003028;28;20040;-74
2023/05/09 11:43:01;;;;;;;9.18;7.15;;;21.10;99.90;;;;;;5007736;28;20053;-76
2023/05/09 11:45:29;;;;;;;12.80;7.05;;;21.00;99.90;;;;;;5006790;28;20026;-75
2023/05/09 11:47:59;;;;;;;11.32;7.25;;;21.10;99.90;;;;;;5016110;28;20022;-75
2023/05/09 11:50:25;;;;;;;9.07;7.20;;;20.90;99.90;;;;;;5035200;28;20322;-74
2023/05/09 11:52:52;;;;;;;13.18;6.70;;;20.90;99.90;;;;;;5032694;28;20066;-74
2023/05/09 11:55:21;;;;;;;7.70;6.90;;;21.10;99.90;;;;;;5016988;28;20083;-74
2023/05/09 11:57:48;;;;;;;10.88;7.53;;;21.20;99.90;;;;;;5015659;28;20032;-75
2023/05/09 12:00:19;;;;;;;12.90;7.30;;;21.50;99.90;;;;;;5035586;28;20069;-75
2023/05/09 12:02:45;;;;;;;10.43;8.10;;;21.70;99.90;;;;;;5014757;28;20044;-75
2023/05/09 12:05:17;;;;;;;10.50;7.82;;;21.90;99.90;;;;;;5016287;28;20579;-74
2023/05/09 12:07:43;;;;;;;11.27;7.22;;;22.30;99.90;;;;;;5035903;28;20033;-75
2023/05/09 12:10:18;;;;;;;11.95;7.97;;;22.80;99.90;;;;;;5034051;28;20028;-75
2023/05/09 12:12:46;;;;;;;10.48;7.40;;;22.90;99.90;;;;;;5004715;28;20523;-75
2023/05/09 12:15:16;;;;;;;12.07;7.78;;;22.90;99.90;;;;;;5032961;28;20036;-75
2023/05/09 12:17:42;;;;;;;13.13;7.68;;;22.90;99.90;;;;;;5012210;28;20026;-75
2023/05/09 12:20:08;;;;;;;12.73;8.38;;;22.80;99.90;;;;;;5016341;28;20044;-74
2023/05/09 12:22:36;;;;;;;10.18;8.25;;;22.80;99.90;;;;;;5013007;28;20028;-74
2023/05/09 12:25:09;;;;;;;8.93;7.97;;;22.80;99.90;;;;;;5001621;28;20034;-76
2023/05/09 12:27:35;;;;;;;;;;;22.90;99.90;;;;;;5027510;28;20032;-76
2023/05/09 12:30:02;;;;;;;15.52;8.15;;;23.00;99.90;;;;;;5026485;28;20008;-76
2023/05/09 12:32:31;;;;;;;13.15;8.52;;;23.00;99.90;;;;;;5025005;28;20157;-75
2023/05/09 12:35:00;;;;;;;13.95;8.23;;;22.80;99.90;;;;;;5019102;28;20088;-74
2023/05/09 12:37:26;;;;;;;12.73;8.57;;;22.80;99.90;;;;;;4999600;28;20476;-77